Time;durP1;ratioP1;P1;durP2;ratioP2;P2;SDS_P1;SDS_P2;PMS_P1;PMS_P2;Temp;Humidity;BMP_temperature;BMP_pressure;BME280_temperature;BME280_humidity;BME280_pressure;Samples;Min_cycle;Max_cycle;Signal;HPM_P1;HPM_P2
2023/08/25 00:00:39;;;;;;;7.07;2.90;;;19.20;99.90;;;19.19;100.00;96927.91;5024907;28;20036;-37
2023/08/25 00:03:05;;;;;;;7.65;3.25;;;19.20;99.90;;;19.13;100.00;96919.53;5031518;28;20099;-40
2023/08/25 00:05:37;;;;;;;8.35;2.90;;;19.30;99.90;;;19.22;100.00;96932.16;5032505;28;20123;-38
2023/08/25 00:08:03;;;;;;;4.72;3.28;;;19.30;99.90;;;19.21;100.00;96939.34;5032686;28;20079;-37
2023/08/25 00:10:28;;;;;;;4.43;2.85;;;19.30;99.90;;;19.19;100.00;96927.91;5027449;28;20536;-37
2023/08/25 00:12:54;;;;;;;5.60;3.20;;;19.30;99.90;;;19.12;100.00;96923.19;5033885;28;20424;-37
2023/08/25 00:15:20;;;;;;;4.82;2.80;;;19.20;99.90;;;19.17;100.00;96935.22;5027767;28;20039;-37
2023/08/25 00:17:46;;;;;;;3.72;2.90;;;19.30;99.90;;;19.17;100.00;96939.72;5024874;28;20029;-37
2023/08/25 00:20:12;;;;;;;4.22;2.83;;;19.20;99.90;;;19.19;100.00;96949.31;5026094;28;20035;-37
2023/08/25 00:22:38;;;;;;;6.40;2.80;;;19.30;99.90;;;19.15;100.00;96939.84;5029247;28;20033;-37
2023/08/25 00:25:05;;;;;;;5.70;2.85;;;19.20;99.90;;;19.20;100.00;96942.13;5031123;28;20025;-37
2023/08/25 00:27:31;;;;;;;5.88;2.92;;;19.30;99.90;;;19.19;100.00;96938.59;5040587;28;20035;-37
2023/08/25 00:29:56;;;;;;;3.58;2.60;;;19.30;99.90;;;19.14;100.00;96935.44;5030684;28;20405;-37
2023/08/25 00:32:22;;;;;;;3.63;2.55;;;19.20;99.90;;;19.16;100.00;96938.84;5027344;28;20037;-37
2023/08/25 00:34:48;;;;;;;4.50;2.70;;;19.20;99.90;;;19.15;100.00;96930.94;5031206;28;20040;-37
2023/08/25 00:37:13;;;;;;;7.32;2.90;;;19.20;99.90;;;19.13;100.00;96927.53;5032324;28;20040;-37
2023/08/25 00:39:39;;;;;;;5.07;3.20;;;19.20;99.90;;;19.07;100.00;96923.53;5025716;28;20033;-37
2023/08/25 00:42:05;;;;;;;4.78;2.95;;;19.10;99.90;;;19.04;100.00;96921.97;5032155;28;20429;-38
2023/08/25 00:44:30;;;;;;;4.15;3.00;;;19.10;99.90;;;18.97;100.00;96912.75;5024987;28;20055;-37
2023/08/25 00:46:57;;;;;;;4.60;2.80;;;19.10;99.90;;;18.93;100.00;96897.06;5030193;28;20048;-37
2023/08/25 00:49:23;;;;;;;4.93;2.80;;;19.00;99.90;;;18.90;100.00;96906.19;5030757;28;20036;-37
2023/08/25 00:51:51;;;;;;;3.60;2.40;;;19.00;99.90;;;18.81;100.00;96897.06;5029048;28;20045;-37
2023/08/25 00:54:19;;;;;;;3.35;2.50;;;18.90;99.90;;;18.86;100.00;96908.25;5028785;28;20064;-37
2023/08/25 00:56:47;;;;;;;2.97;2.53;;;18.90;99.90;;;18.86;100.00;96899.34;5037263;28;20033;-37
2023/08/25 00:59:13;;;;;;;2.78;2.33;;;18.90;99.90;;;18.80;100.00;96892.66;5031389;28;20028;-39
2023/08/25 01:01:38;;;;;;;3.40;2.65;;;18.90;99.90;;;18.84;100.00;96901.28;5014987;28;20372;-37
2023/08/25 01:04:04;;;;;;;5.53;2.33;;;18.90;99.90;;;18.82;100.00;96901.41;5026682;28;20498;-37
2023/08/25 01:06:30;;;;;;;5.97;2.78;;;18.90;99.90;;;18.81;100.00;96896.19;5026207;28;20041;-37
2023/08/25 01:08:56;;;;;;;3.80;2.58;;;18.90;99.90;;;18.79;100.00;96909.66;5025018;28;20482;-37
2023/08/25 01:12:00;;;;;;;3.35;2.55;;;18.90;99.90;;;18.81;100.00;96907.75;5029197;28;20020;-37
2023/08/25 01:14:58;;;;;;;4.60;2.67;;;18.90;99.90;;;18.79;100.00;96908.78;5032833;28;20070;-37
2023/08/25 01:17:50;;;;;;;4.55;2.35;;;18.90;99.90;;;18.78;100.00;96909.78;5038098;28;20037;-37
2023/08/25 01:20:17;;;;;;;4.13;2.83;;;18.90;99.90;;;18.81;100.00;96915.75;5030023;28;20666;-38
2023/08/25 01:23:27;;;;;;;3.88;2.70;;;18.90;99.90;;;18.86;100.00;96904.69;5028172;28;20061;-37
2023/08/25 01:25:55;;;;;;;4.55;2.40;;;18.90;99.90;;;18.89;100.00;96899.97;5042934;28;21565;-37
2023/08/25 01:28:21;;;;;;;3.13;2.20;;;19.00;99.90;;;18.80;100.00;96884.63;5033372;28;20496;-38
2023/08/25 01:30:49;;;;;;;3.22;2.58;;;19.00;99.90;;;18.92;100.00;96896.22;5027577;28;20017;-37
2023/08/25 01:33:15;;;;;;;2.70;2.30;;;19.00;99.90;;;18.89;100.00;96888.44;5028557;28;20029;-37
2023/08/25 01:36:00;;;;;;;3.17;2.25;;;19.00;99.90;;;18.95;100.00;96903.13;5029859;28;20253;-38
2023/08/25 01:39:01;;;;;;;3.80;2.42;;;19.00;99.90;;;18.97;100.00;96898.50;5028259;28;20491;-37
2023/08/25 01:41:40;;;;;;;2.83;2.30;;;19.10;99.90;;;19.03;100.00;96900.72;5029387;28;20393;-37
2023/08/25 01:44:06;;;;;;;5.05;2.15;;;19.10;99.90;;;19.00;100.00;96896.44;5027727;28;20036;-37
2023/08/25 01:46:35;;;;;;;3.92;2.30;;;19.10;99.90;;;19.11;100.00;96908.94;5025083;28;20033;-39
2023/08/25 01:49:02;;;;;;;4.82;2.40;;;19.10;99.90;;;19.08;100.00;96904.72;5028640;28;20116;-38
2023/08/25 01:51:29;;;;;;;4.70;2.40;;;19.10;99.90;;;19.08;100.00;96898.53;5026836;28;20035;-37
2023/08/25 01:53:55;;;;;;;6.15;2.75;;;19.20;99.90;;;19.09;100.00;96902.88;5031154;28;20207;-38
2023/08/25 01:56:22;;;;;;;3.55;2.00;;;19.20;99.90;;;19.08;100.00;96887.84;5026761;28;20063;-38
2023/08/25 01:58:49;;;;;;;5.80;2.70;;;19.20;99.90;;;19.11;100.00;96906.28;5028092;28;20458;-38
2023/08/25 02:01:15;;;;;;;4.05;2.55;;;19.20;99.90;;;19.12;100.00;96899.97;5030571;28;20067;-37
2023/08/25 02:03:41;;;;;;;3.83;2.40;;;19.20;99.90;;;19.16;100.00;96897.91;5029891;28;20110;-37
2023/08/25 02:06:09;;;;;;;2.83;2.25;;;19.20;99.90;;;19.15;100.00;96896.19;5030669;28;20119;-37
2023/08/25 02:08:34;;;;;;;3.63;2.55;;;19.20;99.90;;;18.94;100.00;96864.03;5020329;28;20128;-38
2023/08/25 02:11:00;;;;;;;4.93;2.20;;;19.20;99.90;;;19.10;100.00;96887.72;5028289;28;20037;-37
2023/08/25 02:13:26;;;;;;;3.63;2.28;;;19.10;99.90;;;19.05;100.00;96891.59;5029798;28;20083;-37
2023/08/25 02:15:52;;;;;;;3.20;2.05;;;19.10;99.90;;;19.03;100.00;96890.03;5016218;28;20036;-38
2023/08/25 02:18:18;;;;;;;4.18;2.45;;;19.10;99.90;;;18.99;100.00;96886.75;5021421;28;20130;-38
2023/08/25 02:20:44;;;;;;;4.15;2.08;;;19.10;99.90;;;18.86;100.00;96862.81;5019900;28;20371;-38
2023/08/25 02:23:10;;;;;;;4.53;2.17;;;19.00;99.90;;;18.92;100.00;96876.66;5018162;28;20030;-37
2023/08/25 02:25:36;;;;;;;5.40;2.50;;;19.00;99.90;;;18.91;100.00;96870.47;5028602;28;20394;-38
2023/08/25 02:28:02;;;;;;;5.80;2.30;;;19.00;99.90;;;18.93;100.00;96873.84;5029736;28;20442;-37
2023/08/25 02:30:27;;;;;;;2.70;2.13;;;19.00;99.90;;;18.91;100.00;96874.97;5030225;28;20025;-39
2023/08/25 02:32:54;;;;;;;6.85;2.90;;;19.00;99.90;;;18.93;100.00;96867.66;5028959;28;20040;-39
2023/08/25 02:35:20;;;;;;;8.52;2.63;;;19.00;99.90;;;18.96;100.00;96868.28;5025655;28;20029;-38
2023/08/25 02:38:02;;;;;;;4.57;2.47;;;19.00;99.90;;;19.00;100.00;96855.53;5026120;28;20566;-37
2023/08/25 02:40:28;;;;;;;4.35;2.53;;;19.10;99.90;;;19.02;100.00;96862.47;5032149;28;20036;-37
2023/08/25 02:42:55;;;;;;;5.93;2.97;;;19.10;99.90;;;18.96;100.00;96852.25;5029392;28;20076;-39
2023/08/25 02:45:25;;;;;;;7.07;2.70;;;19.10;99.90;;;18.98;100.00;96858.31;5029582;28;20325;-37
2023/08/25 02:47:51;;;;;;;3.00;2.38;;;19.10;99.90;;;18.96;100.00;96854.06;5027335;28;20025;-39
2023/08/25 02:50:17;;;;;;;6.03;2.47;;;19.00;99.90;;;18.84;100.00;96842.53;5024465;28;20094;-37
2023/08/25 02:52:43;;;;;;;2.58;2.20;;;19.00;99.90;;;18.88;100.00;96858.22;5021769;28;20037;-37
2023/08/25 02:55:09;;;;;;;4.50;2.50;;;18.90;99.90;;;18.84;100.00;96848.75;5024367;28;20422;-38
2023/08/25 02:57:35;;;;;;;3.38;2.50;;;18.90;99.90;;;18.83;100.00;96847.03;5022506;28;20043;-38
2023/08/25 03:00:03;;;;;;;5.45;2.53;;;18.90;99.90;;;18.81;100.00;96842.75;5029510;28;20389;-39
2023/08/25 03:02:29;;;;;;;3.95;2.63;;;18.90;99.90;;;18.80;100.00;96835.69;5028298;28;20458;-38
2023/08/25 03:04:55;;;;;;;5.28;2.38;;;18.90;99.90;;;18.78;100.00;96838.50;5031034;28;20024;-38
2023/08/25 03:07:20;;;;;;;3.45;2.35;;;18.80;99.90;;;18.73;100.00;96835.34;5027040;28;20068;-39
2023/08/25 03:09:46;;;;;;;5.90;2.53;;;18.80;99.90;;;18.69;100.00;96836.56;5028882;28;20119;-37
2023/08/25 03:12:12;;;;;;;3.58;2.60;;;18.70;99.90;;;18.69;100.00;96828.53;5031922;28;21592;-38
2023/08/25 03:14:37;;;;;;;5.03;2.08;;;18.70;99.90;;;18.72;100.00;96832.78;5027864;28;20036;-39
2023/08/25 03:17:03;;;;;;;3.75;2.40;;;18.80;99.90;;;18.74;100.00;96836.19;5024362;28;20485;-37
2023/08/25 03:19:29;;;;;;;4.38;2.50;;;18.80;99.90;;;18.79;100.00;96834.88;5027651;28;20310;-38
2023/08/25 03:21:54;;;;;;;3.70;2.40;;;18.90;99.90;;;18.79;100.00;96816.16;5027594;28;20029;-38
2023/08/25 03:24:20;;;;;;;3.40;2.40;;;18.90;99.90;;;18.88;100.00;96820.81;5033787;28;20028;-38
2023/08/25 03:26:46;;;;;;;3.08;2.10;;;18.90;99.90;;;18.89;100.00;96817.16;5031136;28;20495;-38
2023/08/25 03:29:11;;;;;;;3.17;2.42;;;18.90;99.90;;;18.88;100.00;96807.44;5031571;28;20032;-39
2023/08/25 03:31:38;;;;;;;5.30;2.60;;;18.90;99.90;;;18.85;100.00;96810.34;5027633;28;20107;-37
2023/08/25 03:34:03;;;;;;;3.92;2.70;;;18.90;99.90;;;18.85;100.00;96805.00;5027131;28;20493;-38
2023/08/25 03:36:30;;;;;;;5.03;2.40;;;18.90;99.90;;;18.81;100.00;96792.00;5029983;28;20044;-37
2023/08/25 03:38:56;;;;;;;5.82;2.40;;;18.90;99.90;;;18.81;100.00;96803.56;5030880;28;20543;-37
2023/08/25 03:41:22;;;;;;;6.05;2.38;;;18.90;99.90;;;18.80;100.00;96799.16;5028797;28;20424;-37
2023/08/25 03:43:47;;;;;;;4.60;2.50;;;18.90;99.90;;;18.81;100.00;96800.03;5033975;28;20040;-37
2023/08/25 03:46:13;;;;;;;5.03;2.17;;;18.90;99.90;;;18.81;100.00;96800.91;5029174;28;20029;-37
2023/08/25 03:48:39;;;;;;;4.80;2.67;;;18.90;99.90;;;18.86;100.00;96796.03;5026940;28;20441;-37
2023/08/25 03:51:04;;;;;;;4.05;2.53;;;18.90;99.90;;;18.85;100.00;96791.66;5025646;28;20029;-38
2023/08/25 03:53:30;;;;;;;3.75;2.58;;;18.90;99.90;;;18.83;100.00;96784.75;5025633;28;20060;-37
2023/08/25 03:55:56;;;;;;;2.88;2.47;;;18.90;99.90;;;18.81;100.00;96782.19;5030269;28;20539;-38
2023/08/25 03:58:22;;;;;;;2.97;2.40;;;18.90;99.90;;;18.78;100.00;96778.88;5026008;28;20106;-37
2023/08/25 04:00:55;;;;;;;3.13;2.38;;;18.80;99.90;;;18.59;100.00;96756.34;5027920;28;20021;-38
2023/08/25 04:03:20;;;;;;;6.05;2.70;;;18.80;99.90;;;18.69;100.00;96769.78;5029043;28;20048;-38
2023/08/25 04:05:46;;;;;;;3.92;2.53;;;18.80;99.90;;;18.67;100.00;96769.06;5027116;28;20037;-39
2023/08/25 04:08:12;;;;;;;4.25;2.42;;;18.80;99.90;;;18.63;100.00;96770.28;5027227;28;20055;-37
2023/08/25 04:10:41;;;;;;;4.75;2.42;;;18.70;99.90;;;18.59;100.00;96771.47;5030793;28;20163;-37
2023/08/25 04:13:07;;;;;;;3.70;2.30;;;18.70;99.90;;;18.55;100.00;96759.34;5028673;28;20039;-37
2023/08/25 04:15:33;;;;;;;4.47;2.90;;;18.70;99.90;;;18.50;100.00;96752.56;5029323;28;20456;-37
2023/08/25 04:17:59;;;;;;;5.57;2.80;;;18.60;99.90;;;18.48;100.00;96741.16;5024679;28;20040;-39
2023/08/25 04:20:25;;;;;;;5.60;2.58;;;18.60;99.90;;;18.47;100.00;96760.81;5028339;28;20051;-38
2023/08/25 04:22:50;;;;;;;5.95;2.47;;;18.60;99.90;;;18.43;100.00;96754.03;5024856;28;20120;-39
2023/08/25 04:25:16;;;;;;;2.92;2.00;;;18.60;99.90;;;18.40;100.00;96748.91;5033226;28;20419;-38
2023/08/25 04:27:42;;;;;;;3.25;2.30;;;18.50;99.90;;;18.38;100.00;96745.53;5032546;28;20485;-38
2023/08/25 04:30:08;;;;;;;3.78;2.30;;;18.50;99.90;;;18.31;100.00;96741.63;5026728;28;20032;-37
2023/08/25 04:32:34;;;;;;;3.67;2.60;;;18.40;99.90;;;18.33;100.00;96761.03;5031229;28;20037;-40
2023/08/25 04:34:59;;;;;;;3.78;2.60;;;18.40;99.90;;;18.33;100.00;96753.03;5024522;28;20453;-38
2023/08/25 04:37:25;;;;;;;5.40;2.40;;;18.40;99.90;;;18.34;100.00;96753.88;5028977;28;20037;-37
2023/08/25 04:39:52;;;;;;;7.50;2.20;;;18.40;99.90;;;18.36;100.00;96749.28;5030840;28;20029;-37
2023/08/25 04:42:18;;;;;;;4.75;2.55;;;18.40;99.90;;;18.30;100.00;96742.59;5031376;28;20037;-37
2023/08/25 04:44:44;;;;;;;4.07;2.70;;;18.40;99.90;;;18.31;100.00;96744.31;5027893;28;20063;-37
2023/08/25 04:47:10;;;;;;;3.40;2.45;;;18.40;99.90;;;18.28;100.00;96737.38;5031352;28;20415;-37
2023/08/25 04:49:36;;;;;;;5.35;2.85;;;18.40;99.90;;;18.30;100.00;96732.78;5034937;28;20055;-38
2023/08/25 04:52:01;;;;;;;2.63;2.35;;;18.40;99.90;;;18.34;100.00;96738.75;5031846;28;20029;-37
2023/08/25 04:54:27;;;;;;;3.70;2.33;;;18.40;99.90;;;18.35;100.00;96740.41;5032898;28;20619;-37
2023/08/25 04:56:53;;;;;;;3.38;2.20;;;18.40;99.90;;;18.39;100.00;96738.34;5033886;28;20426;-38
2023/08/25 04:59:18;;;;;;;3.03;2.45;;;18.50;99.90;;;18.41;100.00;96729.28;5032929;28;20025;-39
2023/08/25 05:01:44;;;;;;;3.88;2.30;;;18.50;99.90;;;18.45;100.00;96733.38;5030580;28;20355;-37
2023/08/25 05:04:11;;;;;;;5.63;2.20;;;18.50;99.90;;;18.49;100.00;96734.00;5029840;28;20060;-37
2023/08/25 05:06:37;;;;;;;4.25;2.60;;;18.50;99.90;;;18.53;100.00;96731.94;5032548;28;20024;-38
2023/08/25 05:09:03;;;;;;;3.03;2.35;;;18.60;99.90;;;18.59;100.00;96726.09;5031244;28;20501;-38
2023/08/25 05:11:29;;;;;;;3.17;2.35;;;18.70;99.90;;;18.66;100.00;96717.47;5035231;28;20421;-37
2023/08/25 05:13:55;;;;;;;5.45;2.38;;;18.70;99.90;;;18.73;100.00;96712.47;5032620;28;20036;-38
2023/08/25 05:16:20;;;;;;;2.95;2.42;;;18.80;99.90;;;18.83;100.00;96709.97;5029881;28;20024;-38
2023/08/25 05:18:46;;;;;;;3.78;2.15;;;18.90;99.90;;;18.95;100.00;96710.75;5033655;28;20311;-37
2023/08/25 05:21:14;;;;;;;4.15;2.90;;;19.00;99.90;;;19.05;100.00;96706.38;5032295;28;20025;-38
2023/08/25 05:23:46;;;;;;;6.22;2.60;;;19.10;99.90;;;19.20;100.00;96720.28;5028728;28;20060;-38
2023/08/25 05:26:15;;;;;;;3.28;2.65;;;19.30;99.90;;;19.37;100.00;96721.56;5031933;28;20234;-38
2023/08/25 05:28:42;;;;;;;4.75;2.70;;;19.40;99.90;;;19.39;100.00;96717.78;5032053;28;20060;-38
2023/08/25 05:31:08;;;;;;;3.97;2.60;;;19.50;99.90;;;19.65;100.00;96723.63;5031649;28;20033;-39
2023/08/25 05:33:35;;;;;;;8.52;3.33;;;19.70;99.90;;;19.81;100.00;96711.63;5030205;28;20051;-37
2023/08/25 05:36:02;;;;;;;4.60;2.38;;;19.90;99.90;;;20.07;100.00;96717.44;5034011;28;20470;-37
2023/08/25 05:38:27;;;;;;;4.82;2.47;;;20.20;99.90;;;20.30;100.00;96736.88;5034404;28;20084;-37
2023/08/25 05:40:55;;;;;;;3.10;2.15;;;20.30;99.90;;;20.50;100.00;96726.25;5031550;28;20567;-37
2023/08/25 05:43:21;;;;;;;3.40;2.50;;;20.50;99.90;;;20.66;100.00;96734.66;5026996;28;20029;-37
2023/08/25 05:45:46;;;;;;;3.30;2.47;;;20.70;99.90;;;20.79;100.00;96753.16;5009985;28;20087;-38
2023/08/25 05:48:12;;;;;;;3.97;2.20;;;20.90;99.90;;;20.97;100.00;96766.75;5031189;28;20488;-37
2023/08/25 05:50:38;;;;;;;3.53;2.40;;;21.00;99.90;;;21.10;100.00;96782.59;5031577;28;20367;-37
2023/08/25 05:53:04;;;;;;;5.43;2.30;;;21.10;99.90;;;21.08;100.00;96788.06;5030905;28;20574;-37
2023/08/25 05:55:30;;;;;;;3.50;2.40;;;21.20;99.90;;;21.11;100.00;96811.94;5033403;28;20187;-37
2023/08/25 05:57:55;;;;;;;4.95;2.50;;;21.20;99.90;;;21.06;100.00;96818.69;5032433;28;20033;-37
2023/08/25 06:00:21;;;;;;;3.72;2.28;;;21.20;99.90;;;20.98;100.00;96812.19;5027957;28;20041;-38
2023/08/25 06:02:47;;;;;;;4.10;2.00;;;21.10;99.90;;;20.93;100.00;96826.97;5030203;28;20041;-38
2023/08/25 06:05:12;;;;;;;5.30;2.28;;;21.00;99.90;;;20.87;100.00;96832.88;5033474;28;20436;-38
2023/08/25 06:07:39;;;;;;;4.43;2.20;;;20.90;99.90;;;20.73;100.00;96832.25;5030875;28;20032;-37
2023/08/25 06:10:06;;;;;;;6.35;2.42;;;20.90;99.90;;;20.67;100.00;96867.59;5032657;28;20037;-38
2023/08/25 06:12:31;;;;;;;5.60;2.42;;;20.80;99.90;;;20.62;100.00;96927.91;5027902;28;20030;-40
2023/08/25 06:14:57;;;;;;;8.13;2.70;;;20.70;99.90;;;20.53;100.00;96973.25;5031292;28;20021;-37
2023/08/25 06:17:23;;;;;;;10.48;2.95;;;20.70;99.90;;;20.40;100.00;96975.22;5025935;28;20021;-37
2023/08/25 06:19:48;;;;;;;6.07;2.85;;;20.50;99.90;;;20.36;100.00;97024.69;5027817;28;21933;-37
2023/08/25 06:22:14;;;;;;;8.90;3.10;;;20.40;99.90;;;20.22;100.00;97036.50;5026050;28;20473;-37
2023/08/25 06:24:40;;;;;;;6.43;2.97;;;20.40;99.90;;;20.09;100.00;97001.88;5025070;28;20292;-37
2023/08/25 06:27:05;;;;;;;9.48;2.80;;;20.30;99.90;;;20.16;100.00;97021.81;5026016;28;20401;-38
2023/08/25 06:29:31;;;;;;;6.38;3.20;;;20.30;99.90;;;20.14;100.00;97033.63;5023771;28;20281;-39
2023/08/25 06:31:57;;;;;;;5.53;3.00;;;20.30;99.90;;;20.09;100.00;97017.94;5030767;28;20090;-37
2023/08/25 06:34:23;;;;;;;4.47;3.15;;;20.20;99.90;;;20.05;100.00;97029.03;5032269;28;20082;-39
2023/08/25 06:36:48;;;;;;;5.63;2.80;;;20.20;99.90;;;20.02;100.00;97030.13;5029750;28;20025;-37
2023/08/25 06:39:14;;;;;;;7.35;3.00;;;20.10;99.90;;;20.02;100.00;97048.84;5028739;28;20064;-37
2023/08/25 06:41:40;;;;;;;6.93;3.00;;;20.10;99.90;;;20.02;100.00;97024.75;5030647;28;20087;-38
2023/08/25 06:44:06;;;;;;;7.82;3.00;;;20.10;99.90;;;19.99;100.00;97046.41;5028749;28;20033;-37
2023/08/25 06:46:33;;;;;;;5.20;3.25;;;20.10;99.90;;;19.96;100.00;97042.16;5035790;28;20029;-38
2023/08/25 06:48:58;;;;;;;5.80;3.60;;;20.00;99.90;;;19.93;100.00;97018.31;5025592;28;22971;-38
2023/08/25 06:51:24;;;;;;;12.82;3.60;;;20.00;99.90;;;19.93;100.00;97036.22;5023137;28;20439;-40
2023/08/25 06:53:50;;;;;;;4.70;3.10;;;20.00;99.90;;;19.84;100.00;97032.44;5021046;28;20033;-38
2023/08/25 06:56:15;;;;;;;8.93;3.38;;;20.00;99.90;;;19.75;100.00;97026.00;5026473;28;20020;-38
2023/08/25 06:58:41;;;;;;;7.28;3.22;;;19.90;99.90;;;19.62;100.00;97039.47;5023654;28;20773;-39
2023/08/25 07:01:07;;;;;;;4.35;3.03;;;19.70;99.90;;;19.46;100.00;97023.78;5023471;28;20275;-38
2023/08/25 07:03:34;;;;;;;10.00;3.60;;;19.50;99.90;;;19.34;100.00;97015.91;5025695;28;20109;-37
2023/08/25 07:06:00;;;;;;;8.45;3.72;;;19.40;99.90;;;19.25;100.00;96988.06;5026252;28;20424;-38
2023/08/25 07:08:26;;;;;;;7.55;4.03;;;19.30;99.90;;;19.08;100.00;96984.91;5032349;28;20029;-37
2023/08/25 07:10:51;;;;;;;9.23;3.97;;;19.20;99.90;;;19.07;100.00;96996.53;5019146;28;20040;-37
2023/08/25 07:13:17;;;;;;;7.82;4.10;;;19.10;99.90;;;19.00;100.00;96991.81;5016803;28;20040;-38
2023/08/25 07:15:43;;;;;;;6.05;4.13;;;19.10;99.90;;;18.84;100.00;96971.63;5015080;28;20041;-39
2023/08/25 07:18:10;;;;;;;9.48;4.18;;;19.00;99.90;;;18.92;100.00;96991.56;5009265;28;20040;-38
2023/08/25 07:20:35;;;;;;;7.57;4.20;;;19.00;99.90;;;18.91;100.00;97008.53;5011519;28;20895;-38
2023/08/25 07:23:01;;;;;;;10.52;5.10;;;18.90;99.90;;;18.88;100.00;97023.84;5022608;28;20500;-38
2023/08/25 07:25:27;;;;;;;7.65;4.03;;;18.90;99.90;;;18.81;100.00;97056.47;5013966;28;20025;-38
2023/08/25 07:27:53;;;;;;;7.40;3.30;;;18.90;99.90;;;18.73;100.00;97086.41;5018111;28;20396;-39
2023/08/25 07:30:19;;;;;;;6.22;3.58;;;18.90;99.90;;;18.64;100.00;97095.13;5025721;28;20167;-38
2023/08/25 07:32:45;;;;;;;5.28;3.25;;;18.70;99.90;;;18.63;100.00;97088.09;5029191;28;20123;-40
2023/08/25 07:35:10;;;;;;;6.57;3.42;;;18.70;99.90;;;18.48;100.00;97064.22;5021494;28;20060;-40
2023/08/25 07:37:38;;;;;;;4.47;3.03;;;18.70;99.90;;;18.54;100.00;97099.41;5016107;28;20037;-39
2023/08/25 07:40:05;;;;;;;4.57;2.90;;;18.60;99.90;;;18.54;100.00;97119.00;5017838;28;20056;-38
2023/08/25 07:42:31;;;;;;;4.28;2.63;;;18.70;99.90;;;18.56;100.00;97134.91;5020630;28;20059;-37
2023/08/25 07:44:57;;;;;;;3.53;2.80;;;18.60;99.90;;;18.57;100.00;97124.09;5028626;28;20041;-37
2023/08/25 07:47:23;;;;;;;5.63;3.38;;;18.70;99.90;;;18.58;100.00;97131.13;5017265;28;20317;-41
2023/08/25 07:49:48;;;;;;;6.65;3.50;;;18.70;99.90;;;18.60;100.00;97144.38;5020993;28;20103;-38
2023/08/25 07:52:14;;;;;;;3.40;2.90;;;18.70;99.90;;;18.60;100.00;97171.94;5028945;28;20029;-38
2023/08/25 07:54:40;;;;;;;7.57;2.70;;;18.70;99.90;;;18.53;100.00;97172.50;5018900;28;20053;-38
2023/08/25 07:57:06;;;;;;;4.93;3.00;;;18.70;99.90;;;18.64;100.00;97169.91;5017989;28;20283;-37
2023/08/25 07:59:32;;;;;;;6.68;3.38;;;18.70;99.90;;;18.65;100.00;97166.28;5028187;28;20497;-38
2023/08/25 08:01:58;;;;;;;4.80;2.97;;;18.70;99.90;;;18.59;100.00;97140.88;5022139;28;20136;-38
2023/08/25 08:04:24;;;;;;;3.50;2.25;;;18.70;99.90;;;18.63;100.00;97154.84;5011867;28;20021;-37
2023/08/25 08:06:50;;;;;;;6.35;2.95;;;18.70;99.90;;;18.66;100.00;97165.28;5017741;28;20213;-39
2023/08/25 08:09:17;;;;;;;7.30;3.47;;;18.70;99.90;;;18.62;100.00;97159.31;5023121;28;20360;-38
2023/08/25 08:11:43;;;;;;;4.65;3.13;;;18.70;99.90;;;18.64;100.00;97154.72;5021173;28;20458;-40
2023/08/25 08:14:09;;;;;;;9.15;3.10;;;18.80;99.90;;;18.65;100.00;97143.06;5023647;28;20021;-38
2023/08/25 08:16:35;;;;;;;6.75;3.00;;;18.80;99.90;;;18.62;100.00;97132.63;5023812;28;20035;-39
2023/08/25 08:19:01;;;;;;;5.28;2.70;;;18.70;99.90;;;18.65;100.00;97143.06;5021271;28;20508;-38
2023/08/25 08:21:27;;;;;;;4.93;2.70;;;18.70;99.90;;;18.61;100.00;97146.94;5023054;28;20084;-37
2023/08/25 08:23:52;;;;;;;5.60;2.92;;;18.70;99.90;;;18.63;100.00;97155.69;5029204;28;20104;-37
2023/08/25 08:26:18;;;;;;;5.95;2.80;;;18.70;99.90;;;18.62;100.00;97159.31;5026332;28;20250;-38
2023/08/25 08:28:44;;;;;;;4.97;3.40;;;18.70;99.90;;;18.63;100.00;97157.53;5032098;28;20036;-39
2023/08/25 08:31:17;;;;;;;7.22;3.42;;;18.70;99.90;;;18.65;100.00;97144.91;5026449;28;20436;-38
2023/08/25 08:33:44;;;;;;;7.95;3.45;;;18.70;99.90;;;18.68;100.00;97131.31;5034096;28;20064;-38
2023/08/25 08:36:10;;;;;;;6.63;3.50;;;18.70;99.90;;;18.67;100.00;97103.75;5029641;28;20024;-37
2023/08/25 08:38:35;;;;;;;5.65;3.50;;;18.80;99.90;;;18.67;100.00;97076.19;5032585;28;20086;-39
2023/08/25 08:41:01;;;;;;;5.28;2.90;;;18.80;99.90;;;18.69;100.00;97042.22;5029668;28;20029;-39
2023/08/25 08:43:32;;;;;;;5.28;3.10;;;18.80;99.90;;;18.80;100.00;97039.56;5029156;28;20028;-38
2023/08/25 08:45:59;;;;;;;6.57;3.20;;;18.90;99.90;;;18.86;100.00;97036.47;5041577;28;20033;-38
2023/08/25 08:48:26;;;;;;;6.35;3.72;;;18.90;99.90;;;18.70;100.00;96978.00;5023687;28;20056;-37
2023/08/25 08:50:52;;;;;;;7.28;3.47;;;19.00;99.90;;;18.94;100.00;96982.44;5024978;28;20033;-38
2023/08/25 08:53:18;;;;;;;4.90;3.05;;;19.00;99.90;;;19.00;100.00;96962.41;5015260;28;20025;-37
2023/08/25 08:55:46;;;;;;;5.47;2.88;;;19.10;99.90;;;19.05;100.00;96957.56;5023025;28;20535;-40
2023/08/25 08:58:15;;;;;;;3.63;2.60;;;19.10;99.90;;;19.07;100.00;96939.56;5021223;28;20025;-38
2023/08/25 09:00:42;;;;;;;3.67;2.80;;;19.10;99.90;;;19.08;100.00;96946.63;5026850;28;20025;-38
2023/08/25 09:03:16;;;;;;;7.00;3.25;;;19.10;99.90;;;19.13;100.00;96922.19;5017131;28;20044;-38
2023/08/25 09:05:43;;;;;;;5.70;3.00;;;19.20;99.90;;;19.18;100.00;96915.50;5022449;28;20025;-40
2023/08/25 09:08:11;;;;;;;9.07;3.83;;;19.30;99.90;;;19.27;100.00;96948.69;5022373;28;20040;-40
2023/08/25 09:10:37;;;;;;;4.75;3.38;;;19.30;99.90;;;19.28;100.00;96950.41;5034118;28;20485;-38
2023/08/25 09:13:03;;;;;;;4.50;3.22;;;19.40;99.90;;;19.45;100.00;96941.03;5018801;28;20049;-38
2023/08/25 09:15:31;;;;;;;8.27;3.60;;;19.50;99.90;;;19.55;100.00;96936.63;5016004;28;20544;-39
2023/08/25 09:18:06;;;;;;;5.55;3.17;;;19.60;99.90;;;19.58;100.00;96933.72;5024494;28;20036;-38
2023/08/25 09:20:35;;;;;;;5.32;3.50;;;19.70;99.90;;;19.62;100.00;96918.28;5009358;28;20041;-38
2023/08/25 09:23:02;;;;;;;7.50;3.50;;;19.80;99.90;;;19.73;100.00;96917.41;5029515;28;20048;-39
2023/08/25 09:25:28;;;;;;;7.70;2.95;;;19.90;99.90;;;19.91;100.00;96915.06;5029015;28;20209;-38
2023/08/25 09:28:03;;;;;;;6.50;3.10;;;20.10;99.90;;;20.04;100.00;96918.41;5033146;28;20057;-38
2023/08/25 09:30:41;;;;;;;10.27;3.42;;;20.20;99.90;;;20.07;100.00;96893.25;5025965;28;20742;-38
2023/08/25 09:33:13;;;;;;;4.57;3.13;;;20.30;99.90;;;20.17;100.00;96870.06;5039893;28;20507;-38
2023/08/25 09:35:40;;;;;;;5.43;3.20;;;20.50;99.90;;;20.43;100.00;96865.19;5017760;28;20692;-39
2023/08/25 09:38:06;;;;;;;9.00;3.13;;;20.70;99.90;;;20.49;100.00;96866.47;5021471;28;20036;-38
2023/08/25 09:40:31;;;;;;;9.30;3.78;;;20.70;99.90;;;20.55;100.00;96876.69;5005802;28;20571;-39
2023/08/25 09:43:04;;;;;;;6.95;3.53;;;20.80;99.90;;;20.68;100.00;96885.38;5015436;28;20047;-39
2023/08/25 09:45:32;;;;;;;6.45;3.28;;;20.90;99.90;;;20.87;100.00;96883.78;5021064;28;21752;-38
2023/08/25 09:48:10;;;;;;;4.30;3.20;;;21.00;99.90;;;20.88;100.00;96886.34;5023273;28;20083;-38
2023/08/25 09:50:41;;;;;;;7.38;3.25;;;21.20;99.90;;;20.97;100.00;96873.97;5025288;28;20576;-38
2023/08/25 09:53:08;;;;;;;5.05;3.22;;;21.30;99.90;;;21.16;100.00;96871.38;5024686;28;20035;-38
2023/08/25 09:55:38;;;;;;;5.95;3.08;;;21.40;99.90;;;21.36;100.00;96882.16;5017481;28;20468;-38
2023/08/25 09:58:06;;;;;;;7.53;3.17;;;21.60;99.90;;;21.53;100.00;96897.63;5028738;28;20076;-38
2023/08/25 10:00:39;;;;;;;5.28;3.30;;;21.80;99.90;;;21.57;100.00;96891.97;5022692;28;20504;-38
2023/08/25 10:03:11;;;;;;;5.30;3.08;;;21.90;99.90;;;21.71;100.00;96895.13;5030995;28;20025;-38
2023/08/25 10:05:42;;;;;;;5.90;2.77;;;21.90;99.90;;;21.81;100.00;96907.72;5032957;28;20025;-39
2023/08/25 10:08:09;;;;;;;6.40;2.93;;;21.90;99.90;;;21.63;100.00;96896.81;5032971;28;20496;-40
2023/08/25 10:10:37;;;;;;;8.25;2.80;;;21.90;99.90;;;21.44;100.00;96919.03;5014439;28;20115;-39
2023/08/25 10:13:03;;;;;;;3.50;2.60;;;21.70;99.90;;;21.37;100.00;96916.03;5024934;28;20026;-38